Time;durP1;ratioP1;P1;durP2;ratioP2;P2;SDS_P1;SDS_P2;PMS_P1;PMS_P2;Temp;Humidity;BMP_temperature;BMP_pressure;BME280_temperature;BME280_humidity;BME280_pressure;Samples;Min_cycle;Max_cycle;Signal;HPM_P1;HPM_P2
2022/02/22 00:01:33;;;;;;;8.40;1.20;;;;;;;;;;4968155;28;20060;-67
2022/02/22 00:04:00;;;;;;;6.30;1.13;;;;;;;;;;4960642;28;20463;-67
2022/02/22 00:06:27;;;;;;;5.97;1.20;;;;;;;;;;4952955;28;20102;-67
2022/02/22 00:08:53;;;;;;;12.07;1.85;;;;;;;;;;4953461;29;20059;-67
2022/02/22 00:11:21;;;;;;;5.95;1.10;;;;;;;;;;4953236;29;20055;-68
2022/02/22 00:13:48;;;;;;;4.95;1.88;;;;;;;;;;4951593;28;20101;-68
2022/02/22 00:16:15;;;;;;;2.42;0.82;;;;;;;;;;4953431;28;20055;-67
2022/02/22 00:18:42;;;;;;;5.57;1.17;;;;;;;;;;4951849;28;20433;-67
2022/02/22 00:21:09;;;;;;;6.55;1.08;;;;;;;;;;4953158;28;20051;-67
2022/02/22 00:23:35;;;;;;;7.53;1.25;;;;;;;;;;4951718;29;20047;-67
2022/02/22 00:26:02;;;;;;;7.82;1.65;;;;;;;;;;4953157;29;20585;-68
2022/02/22 00:28:29;;;;;;;6.65;1.80;;;;;;;;;;4942577;29;20055;-67
2022/02/22 00:30:56;;;;;;;6.60;1.10;;;;;;;;;;4971836;28;20470;-67
2022/02/22 00:33:23;;;;;;;9.43;1.10;;;;;;;;;;4954341;28;20051;-67
2022/02/22 00:35:49;;;;;;;5.45;1.40;;;;;;;;;;4965984;28;20423;-67
2022/02/22 00:38:17;;;;;;;4.88;1.00;;;;;;;;;;4972204;28;20506;-67
2022/02/22 00:40:44;;;;;;;5.32;1.10;;;;;;;;;;4958537;28;20149;-68
2022/02/22 00:43:13;;;;;;;8.85;1.27;;;;;;;;;;4969972;28;20138;-67
2022/02/22 00:45:40;;;;;;;6.70;0.80;;;;;;;;;;4970299;28;20086;-68
2022/02/22 00:48:07;;;;;;;7.60;1.23;;;;;;;;;;4967665;28;20047;-68
2022/02/22 00:50:34;;;;;;;7.55;1.13;;;;;;;;;;4969247;28;20046;-67
2022/02/22 00:53:01;;;;;;;8.98;1.40;;;;;;;;;;4948421;28;20573;-66
2022/02/22 00:55:28;;;;;;;7.95;1.95;;;;;;;;;;4973903;28;20466;-68
2022/02/22 00:57:54;;;;;;;6.45;1.33;;;;;;;;;;4974068;28;20109;-67
2022/02/22 01:00:21;;;;;;;7.00;1.15;;;;;;;;;;4974181;28;20114;-67
2022/02/22 01:02:48;;;;;;;6.18;1.60;;;;;;;;;;4972695;28;20493;-67
2022/02/22 01:05:14;;;;;;;7.25;1.13;;;;;;;;;;4962890;28;20059;-68
2022/02/22 01:07:41;;;;;;;3.92;0.88;;;;;;;;;;4973951;28;20058;-68
2022/02/22 01:10:08;;;;;;;5.82;0.90;;;;;;;;;;4962855;28;20054;-68
2022/02/22 01:12:35;;;;;;;5.68;1.80;;;;;;;;;;4973456;28;20093;-67
2022/02/22 01:15:02;;;;;;;5.03;1.65;;;;;;;;;;4945929;28;20054;-67
2022/02/22 01:17:29;;;;;;;7.95;1.40;;;;;;;;;;4973704;28;20054;-66
2022/02/22 01:19:56;;;;;;;8.95;1.48;;;;;;;;;;4972287;28;20051;-67
2022/02/22 01:22:22;;;;;;;5.28;0.90;;;;;;;;;;4956777;28;20576;-68
2022/02/22 01:24:49;;;;;;;5.63;1.10;;;;;;;;;;4973337;28;20568;-69
2022/02/22 01:27:15;;;;;;;7.35;1.67;;;;;;;;;;4972288;28;20101;-68
2022/02/22 01:29:42;;;;;;;7.75;1.63;;;;;;;;;;4972311;28;20103;-68
2022/02/22 01:32:09;;;;;;;3.50;1.30;;;;;;;;;;4968802;28;20105;-67
2022/02/22 01:34:35;;;;;;;7.70;1.27;;;;;;;;;;4972581;28;20042;-66
2022/02/22 01:37:04;;;;;;;7.45;1.17;;;;;;;;;;4973631;28;20137;-67
2022/02/22 01:39:30;;;;;;;3.58;1.17;;;;;;;;;;4972723;28;20051;-67
2022/02/22 01:41:57;;;;;;;6.80;1.40;;;;;;;;;;4973006;28;20055;-68
2022/02/22 01:44:23;;;;;;;7.70;1.20;;;;;;;;;;4973368;28;20101;-68
2022/02/22 01:46:58;;;;;;;4.28;1.10;;;;;;;;;;4971685;28;20054;-68
2022/02/22 01:49:26;;;;;;;6.45;1.25;;;;;;;;;;4972521;28;20067;-69
2022/02/22 01:51:53;;;;;;;3.92;1.02;;;;;;;;;;4961936;28;20548;-69
2022/02/22 01:54:20;;;;;;;4.47;1.20;;;;;;;;;;4947959;28;20042;-69
2022/02/22 01:56:48;;;;;;;3.10;0.80;;;;;;;;;;4955672;28;20178;-68
2022/02/22 01:59:15;;;;;;;5.70;1.20;;;;;;;;;;4968309;28;20046;-69
2022/02/22 02:01:41;;;;;;;8.27;1.20;;;;;;;;;;4955734;28;20113;-69
2022/02/22 02:04:08;;;;;;;3.38;1.83;;;;;;;;;;4955531;28;20477;-69
2022/02/22 02:06:36;;;;;;;8.10;1.70;;;;;;;;;;4971766;28;20105;-68
2022/02/22 02:09:04;;;;;;;10.95;1.95;;;;;;;;;;4972559;28;20093;-69
2022/02/22 02:11:41;;;;;;;5.65;1.70;;;;;;;;;;4972900;28;20133;-68
2022/02/22 02:14:08;;;;;;;8.35;1.40;;;;;;;;;;4971127;28;20057;-68
2022/02/22 02:16:35;;;;;;;8.05;1.63;;;;;;;;;;4971005;28;20466;-68
2022/02/22 02:19:02;;;;;;;7.45;1.25;;;;;;;;;;4971833;28;20051;-70
2022/02/22 02:21:28;;;;;;;6.30;1.63;;;;;;;;;;4964726;28;20051;-70
2022/02/22 02:24:05;;;;;;;7.85;3.22;;;;;;;;;;4951115;29;20047;-70
2022/02/22 02:26:32;;;;;;;5.57;1.10;;;;;;;;;;4953410;29;20051;-70
2022/02/22 02:28:58;;;;;;;9.57;2.45;;;;;;;;;;4942839;28;20109;-70
2022/02/22 02:31:25;;;;;;;7.93;1.35;;;;;;;;;;4972871;28;20098;-70
2022/02/22 02:33:51;;;;;;;5.95;1.13;;;;;;;;;;4972202;28;20114;-70
2022/02/22 02:36:19;;;;;;;7.25;1.40;;;;;;;;;;4972614;28;20047;-70
2022/02/22 02:38:46;;;;;;;3.78;1.13;;;;;;;;;;4973647;28;20051;-70
2022/02/22 02:41:12;;;;;;;6.90;1.77;;;;;;;;;;4973987;28;20129;-70
2022/02/22 02:43:39;;;;;;;6.82;1.58;;;;;;;;;;4954835;28;20047;-70
2022/02/22 02:46:05;;;;;;;8.93;1.25;;;;;;;;;;4954163;29;20098;-71
2022/02/22 02:48:32;;;;;;;6.75;1.63;;;;;;;;;;4954186;29;20109;-70
2022/02/22 02:50:59;;;;;;;7.07;1.38;;;;;;;;;;4953166;29;20063;-70
2022/02/22 02:53:25;;;;;;;7.78;1.83;;;;;;;;;;4952510;28;20047;-70
2022/02/22 02:55:52;;;;;;;7.40;1.50;;;;;;;;;;4959892;28;20047;-70
2022/02/22 02:58:18;;;;;;;5.63;1.40;;;;;;;;;;4973317;28;20502;-70
2022/02/22 03:00:45;;;;;;;8.07;1.75;;;;;;;;;;4973159;28;20097;-70
2022/02/22 03:03:11;;;;;;;8.20;1.55;;;;;;;;;;4971920;28;20417;-70
2022/02/22 03:05:39;;;;;;;6.72;1.10;;;;;;;;;;4973007;28;20054;-70
2022/02/22 03:08:05;;;;;;;6.40;1.88;;;;;;;;;;4973214;28;20046;-70
2022/02/22 03:10:32;;;;;;;6.88;1.13;;;;;;;;;;4971693;28;20186;-70
2022/02/22 03:12:59;;;;;;;4.95;1.30;;;;;;;;;;4972544;28;20055;-70
2022/02/22 03:15:25;;;;;;;9.32;1.60;;;;;;;;;;4996123;23;20078;-70
2022/02/22 03:17:52;;;;;;;7.47;1.55;;;;;;;;;;4975533;28;20096;-70
2022/02/22 03:20:19;;;;;;;6.63;1.70;;;;;;;;;;4976479;28;20059;-71
2022/02/22 03:22:46;;;;;;;5.35;1.33;;;;;;;;;;4976486;28;20046;-70
2022/02/22 03:25:12;;;;;;;10.93;1.77;;;;;;;;;;4975536;28;20097;-71
2022/02/22 03:27:39;;;;;;;6.78;2.40;;;;;;;;;;4976162;28;20566;-71
2022/02/22 03:30:06;;;;;;;9.00;2.58;;;;;;;;;;4976721;28;20097;-70
2022/02/22 03:32:34;;;;;;;4.57;1.55;;;;;;;;;;4976392;28;20074;-70
2022/02/22 03:35:01;;;;;;;7.63;1.75;;;;;;;;;;4976713;28;20097;-71
2022/02/22 03:37:27;;;;;;;5.68;1.80;;;;;;;;;;4975172;28;20055;-71
2022/02/22 03:39:54;;;;;;;13.38;2.42;;;;;;;;;;4975459;28;20054;-70
2022/02/22 03:42:21;;;;;;;6.30;1.25;;;;;;;;;;4976970;28;20051;-70
2022/02/22 03:44:47;;;;;;;9.98;2.13;;;;;;;;;;4974966;28;20074;-71
2022/02/22 03:47:14;;;;;;;5.25;1.30;;;;;;;;;;4976047;28;20062;-71
2022/02/22 03:49:40;;;;;;;8.85;1.42;;;;;;;;;;4975089;28;20097;-70
2022/02/22 03:52:07;;;;;;;6.78;1.20;;;;;;;;;;4975888;28;20051;-70
2022/02/22 03:54:34;;;;;;;4.53;1.42;;;;;;;;;;4982303;28;20075;-70
2022/02/22 03:57:00;;;;;;;7.25;1.25;;;;;;;;;;4974031;28;20078;-70
2022/02/22 03:59:27;;;;;;;11.05;1.55;;;;;;;;;;4973565;28;20441;-70
2022/02/22 04:01:55;;;;;;;5.70;1.40;;;;;;;;;;4972699;28;20055;-70
2022/02/22 04:04:22;;;;;;;3.53;1.13;;;;;;;;;;4973383;28;20469;-70
2022/02/22 04:06:48;;;;;;;5.18;1.42;;;;;;;;;;4972728;28;20097;-70
2022/02/22 04:09:15;;;;;;;4.93;1.10;;;;;;;;;;4972802;28;20113;-70
2022/02/22 04:11:41;;;;;;;5.20;1.33;;;;;;;;;;4972982;28;20513;-70
2022/02/22 04:14:08;;;;;;;8.98;1.88;;;;;;;;;;4972605;28;20051;-71
2022/02/22 04:16:34;;;;;;;5.53;1.58;;;;;;;;;;4970940;28;20394;-71
2022/02/22 04:19:01;;;;;;;6.40;1.67;;;;;;;;;;4972981;28;20109;-70
2022/02/22 04:21:28;;;;;;;9.05;2.20;;;;;;;;;;4972957;28;20050;-71
2022/02/22 04:23:54;;;;;;;10.05;1.63;;;;;;;;;;4972916;28;20050;-71
2022/02/22 04:26:21;;;;;;;5.60;1.67;;;;;;;;;;4976557;28;20087;-70
2022/02/22 04:28:49;;;;;;;7.22;1.38;;;;;;;;;;4976594;28;20130;-71
2022/02/22 04:31:15;;;;;;;3.47;1.27;;;;;;;;;;4976527;28;20077;-70
2022/02/22 04:33:42;;;;;;;7.13;1.95;;;;;;;;;;4976582;28;20051;-71
2022/02/22 04:36:09;;;;;;;10.23;3.17;;;;;;;;;;4977058;28;20050;-71
2022/02/22 04:38:35;;;;;;;8.15;2.20;;;;;;;;;;4976892;28;20058;-71
2022/02/22 04:41:02;;;;;;;9.98;2.85;;;;;;;;;;4976389;28;20580;-71
2022/02/22 04:43:29;;;;;;;9.35;2.58;;;;;;;;;;4976186;28;20054;-70
2022/02/22 04:45:56;;;;;;;8.07;2.63;;;;;;;;;;4976400;28;20132;-70
2022/02/22 04:48:22;;;;;;;10.57;2.88;;;;;;;;;;4976319;28;20125;-71
2022/02/22 04:50:49;;;;;;;6.50;2.72;;;;;;;;;;4976087;28;20110;-71
2022/02/22 04:53:15;;;;;;;5.43;2.10;;;;;;;;;;4976101;28;20109;-71
2022/02/22 04:55:42;;;;;;;6.30;2.30;;;;;;;;;;4975978;28;20496;-70
2022/02/22 04:58:09;;;;;;;7.30;2.00;;;;;;;;;;4978861;28;20047;-70
2022/02/22 05:00:35;;;;;;;11.57;2.10;;;;;;;;;;4978951;28;20058;-70
2022/02/22 05:03:02;;;;;;;11.75;2.97;;;;;;;;;;4974684;28;20069;-71
2022/02/22 05:05:29;;;;;;;9.90;2.40;;;;;;;;;;4975687;28;20051;-71
2022/02/22 05:07:58;;;;;;;5.72;2.25;;;;;;;;;;4976092;28;20054;-70
2022/02/22 05:10:25;;;;;;;10.00;2.75;;;;;;;;;;4976448;28;20278;-71
2022/02/22 05:12:52;;;;;;;8.75;2.35;;;;;;;;;;4976071;28;20487;-71
2022/02/22 05:15:18;;;;;;;10.75;2.38;;;;;;;;;;4977078;28;20046;-71
2022/02/22 05:17:45;;;;;;;7.28;1.70;;;;;;;;;;4977051;28;20051;-70
2022/02/22 05:20:12;;;;;;;9.30;2.30;;;;;;;;;;4976369;28;20098;-70
2022/02/22 05:22:42;;;;;;;9.43;2.15;;;;;;;;;;4975786;28;20047;-70
2022/02/22 05:25:10;;;;;;;8.40;2.20;;;;;;;;;;4975716;28;20202;-70
2022/02/22 05:27:37;;;;;;;13.38;2.85;;;;;;;;;;4976127;28;20117;-71
2022/02/22 05:30:06;;;;;;;6.25;2.35;;;;;;;;;;4976081;28;20082;-70
2022/02/22 05:32:33;;;;;;;6.13;1.90;;;;;;;;;;4975718;28;20055;-70
2022/02/22 05:35:01;;;;;;;8.07;2.20;;;;;;;;;;4975620;28;20074;-70
2022/02/22 05:37:28;;;;;;;6.68;2.03;;;;;;;;;;4958719;28;20082;-71
2022/02/22 05:39:55;;;;;;;5.57;2.05;;;;;;;;;;4975932;28;20128;-70
2022/02/22 05:42:26;;;;;;;4.78;1.65;;;;;;;;;;4975530;28;20117;-71
2022/02/22 05:44:52;;;;;;;4.10;1.90;;;;;;;;;;4976164;28;20054;-69
2022/02/22 05:47:19;;;;;;;5.50;1.88;;;;;;;;;;4975859;28;20102;-70
2022/02/22 05:49:47;;;;;;;12.00;3.30;;;;;;;;;;4975865;28;20062;-70
2022/02/22 05:52:17;;;;;;;9.95;2.00;;;;;;;;;;4975428;28;20046;-70
2022/02/22 05:54:43;;;;;;;10.88;1.90;;;;;;;;;;4974996;28;20468;-71
2022/02/22 05:57:13;;;;;;;10.95;1.98;;;;;;;;;;4974938;28;20065;-70
2022/02/22 05:59:39;;;;;;;11.15;2.00;;;;;;;;;;4974565;28;20082;-70
2022/02/22 06:02:06;;;;;;;5.82;1.75;;;;;;;;;;4964195;28;20051;-71
2022/02/22 06:04:32;;;;;;;9.32;2.53;;;;;;;;;;4969729;28;20506;-70
2022/02/22 06:06:59;;;;;;;5.20;1.67;;;;;;;;;;4975071;28;20087;-69
2022/02/22 06:09:25;;;;;;;5.55;1.80;;;;;;;;;;4975081;28;20051;-69
2022/02/22 06:11:52;;;;;;;11.32;2.42;;;;;;;;;;4972846;28;20051;-69
2022/02/22 06:14:19;;;;;;;7.43;2.03;;;;;;;;;;4971734;28;20046;-69
2022/02/22 06:16:45;;;;;;;7.78;2.50;;;;;;;;;;4971826;28;20046;-68
2022/02/22 06:19:12;;;;;;;9.75;2.33;;;;;;;;;;4972147;28;20051;-69
2022/02/22 06:21:39;;;;;;;15.75;2.55;;;;;;;;;;4971948;28;20552;-69
2022/02/22 06:24:05;;;;;;;5.95;1.90;;;;;;;;;;4969798;28;20121;-68
2022/02/22 06:26:32;;;;;;;7.15;2.20;;;;;;;;;;4960452;28;20105;-68
2022/02/22 06:28:59;;;;;;;6.85;1.77;;;;;;;;;;4972077;28;20109;-69
2022/02/22 06:31:26;;;;;;;11.40;3.35;;;;;;;;;;4971749;28;20054;-68
2022/02/22 06:33:53;;;;;;;12.02;3.10;;;;;;;;;;4971411;28;20054;-68
2022/02/22 06:36:19;;;;;;;7.35;3.40;;;;;;;;;;4971886;28;20054;-68
2022/02/22 06:38:46;;;;;;;14.52;2.92;;;;;;;;;;4971341;28;20054;-68
2022/02/22 06:41:12;;;;;;;5.75;2.00;;;;;;;;;;4971231;28;20050;-68
2022/02/22 06:43:39;;;;;;;8.90;2.08;;;;;;;;;;4971444;28;20105;-68
2022/02/22 06:46:06;;;;;;;7.75;2.53;;;;;;;;;;4970990;28;20055;-68
2022/02/22 06:48:32;;;;;;;15.82;2.92;;;;;;;;;;4971174;28;20054;-68
2022/02/22 06:50:59;;;;;;;7.22;1.90;;;;;;;;;;4970921;28;20085;-68
2022/02/22 06:53:26;;;;;;;10.48;2.40;;;;;;;;;;4971113;28;20055;-68
2022/02/22 06:55:52;;;;;;;11.07;2.35;;;;;;;;;;4971308;28;20117;-68
2022/02/22 06:58:19;;;;;;;8.20;2.25;;;;;;;;;;4971826;28;20105;-69
2022/02/22 07:00:48;;;;;;;12.15;2.30;;;;;;;;;;4970136;28;20461;-69
2022/02/22 07:03:15;;;;;;;7.10;2.55;;;;;;;;;;4968517;28;20540;-69
2022/02/22 07:05:42;;;;;;;9.52;2.10;;;;;;;;;;4970721;28;20601;-69
2022/02/22 07:08:09;;;;;;;13.38;3.30;;;;;;;;;;4971570;28;20106;-69
2022/02/22 07:10:36;;;;;;;5.70;2.25;;;;;;;;;;4971323;28;20113;-70
2022/02/22 07:13:02;;;;;;;5.20;2.00;;;;;;;;;;4971354;28;20101;-69
2022/02/22 08:44:02;;;;;;;16.98;3.38;;;;;;;;;;4963510;28;20145;-71
2022/02/22 08:46:29;;;;;;;13.95;2.50;;;;;;;;;;4961770;28;20047;-70
2022/02/22 08:51:34;;;;;;;14.52;2.03;;;;;;;;;;5559718;23;20048;-68
2022/02/22 08:54:02;;;;;;;9.52;2.67;;;;;;;;;;4966649;28;20050;-70
2022/02/22 08:56:29;;;;;;;13.13;2.90;;;;;;;;;;4972218;28;20050;-70
2022/02/22 08:58:56;;;;;;;12.55;3.10;;;;;;;;;;4972256;28;20051;-69
2022/02/22 09:01:23;;;;;;;11.45;1.80;;;;;;;;;;4972416;28;20050;-69
2022/02/22 09:03:50;;;;;;;10.35;1.88;;;;;;;;;;4969251;28;20055;-69
2022/02/22 09:06:17;;;;;;;8.88;2.00;;;;;;;;;;4971962;28;20055;-69
2022/02/22 09:08:44;;;;;;;8.68;2.03;;;;;;;;;;4971859;28;20720;-69
2022/02/22 09:11:11;;;;;;;10.80;2.17;;;;;;;;;;4971062;28;20043;-69
2022/02/22 09:13:37;;;;;;;8.77;1.48;;;;;;;;;;4971602;28;20498;-69
2022/02/22 09:16:05;;;;;;;8.38;1.80;;;;;;;;;;4971211;28;20508;-69
2022/02/22 09:18:31;;;;;;;8.95;1.83;;;;;;;;;;4971965;28;20051;-69
2022/02/22 09:20:58;;;;;;;10.95;2.83;;;;;;;;;;4971561;28;20125;-69
2022/02/22 09:23:25;;;;;;;11.27;2.90;;;;;;;;;;4968304;28;20546;-69
2022/02/22 09:25:52;;;;;;;10.30;2.67;;;;;;;;;;4971971;28;20446;-69
2022/02/22 09:28:19;;;;;;;10.82;2.20;;;;;;;;;;4971976;28;20570;-69
2022/02/22 09:30:45;;;;;;;8.65;2.08;;;;;;;;;;4970654;28;20501;-69
2022/02/22 09:33:12;;;;;;;7.75;1.95;;;;;;;;;;4971310;28;20051;-69
2022/02/22 09:35:40;;;;;;;9.45;1.90;;;;;;;;;;4971334;28;20051;-69
2022/02/22 09:38:09;;;;;;;9.35;2.33;;;;;;;;;;4970415;28;20591;-68
2022/02/22 09:40:36;;;;;;;8.13;1.95;;;;;;;;;;4972121;28;20054;-69
2022/02/22 09:43:03;;;;;;;10.48;1.85;;;;;;;;;;4967815;28;20055;-69
2022/02/22 09:45:30;;;;;;;12.30;2.25;;;;;;;;;;4974639;28;20055;-69
2022/02/22 09:48:04;;;;;;;8.00;1.80;;;;;;;;;;4974032;28;20276;-69
2022/02/22 09:50:32;;;;;;;7.80;1.77;;;;;;;;;;4970034;28;20074;-69
2022/02/22 09:52:59;;;;;;;7.57;2.25;;;;;;;;;;4972259;28;20051;-68
2022/02/22 09:55:26;;;;;;;10.23;2.72;;;;;;;;;;4973355;28;20057;-68
2022/02/22 09:57:53;;;;;;;11.52;2.47;;;;;;;;;;4973417;28;20098;-70
2022/02/22 10:00:27;;;;;;;8.73;2.00;;;;;;;;;;4965771;28;20121;-69
2022/02/22 10:03:00;;;;;;;11.25;1.85;;;;;;;;;;4969848;28;20421;-75
2022/02/22 10:05:28;;;;;;;8.57;1.85;;;;;;;;;;4964120;28;20457;-72
2022/02/22 10:07:57;;;;;;;13.98;2.38;;;;;;;;;;4969045;28;20083;-72
2022/02/22 10:10:37;;;;;;;7.43;1.60;;;;;;;;;;4972465;28;20520;-73
2022/02/22 10:13:05;;;;;;;5.47;1.58;;;;;;;;;;4972755;28;20755;-70
2022/02/22 10:15:41;;;;;;;7.50;1.90;;;;;;;;;;4973284;28;20521;-69
2022/02/22 10:18:09;;;;;;;8.35;1.70;;;;;;;;;;4973265;28;20047;-72
2022/02/22 10:20:36;;;;;;;8.13;1.88;;;;;;;;;;4971145;28;20129;-70
2022/02/22 10:23:05;;;;;;;9.32;1.90;;;;;;;;;;4973242;28;20071;-68
2022/02/22 10:25:32;;;;;;;8.10;1.85;;;;;;;;;;4972406;28;20062;-69
2022/02/22 10:28:00;;;;;;;9.50;2.15;;;;;;;;;;4973439;28;20058;-71
2022/02/22 10:30:39;;;;;;;21.85;3.40;;;;;;;;;;4972616;28;20050;-71
2022/02/22 10:33:37;;;;;;;;;;;;;;;;;;;;;
2022/02/22 10:36:21;;;;;;;6.22;1.48;;;;;;;;;;4971086;28;20456;-70
2022/02/22 10:38:48;;;;;;;8.07;1.98;;;;;;;;;;4973081;28;20055;-69
2022/02/22 10:41:15;;;;;;;7.82;1.80;;;;;;;;;;4971795;28;20046;-70
2022/02/22 10:43:54;;;;;;;8.63;1.98;;;;;;;;;;4969582;28;20153;-67
2022/02/22 10:46:35;;;;;;;10.93;2.10;;;;;;;;;;4970181;28;20149;-69
2022/02/22 10:49:12;;;;;;;11.15;1.83;;;;;;;;;;4972091;28;20417;-67
2022/02/22 10:51:42;;;;;;;8.20;2.00;;;;;;;;;;4971443;28;20149;-68
2022/02/22 10:54:18;;;;;;;8.30;2.50;;;;;;;;;;4972667;28;20417;-72
2022/02/22 10:56:47;;;;;;;8.13;2.40;;;;;;;;;;4971800;28;20049;-68
2022/02/22 10:59:20;;;;;;;10.82;2.70;;;;;;;;;;4970938;28;20054;-67
2022/02/22 11:01:48;;;;;;;7.28;1.83;;;;;;;;;;4971454;28;20047;-67
2022/02/22 11:04:15;;;;;;;7.78;2.38;;;;;;;;;;4972426;28;20137;-72
2022/02/22 11:06:42;;;;;;;12.63;1.92;;;;;;;;;;4972471;28;20105;-68
2022/02/22 11:09:12;;;;;;;9.30;1.95;;;;;;;;;;4972126;28;20620;-69
2022/02/22 11:11:49;;;;;;;7.80;2.13;;;;;;;;;;4948598;28;20085;-69
2022/02/22 11:14:22;;;;;;;7.32;1.88;;;;;;;;;;4971609;28;20421;-68
2022/02/22 11:16:51;;;;;;;8.55;2.03;;;;;;;;;;4971696;28;20141;-69
2022/02/22 11:19:20;;;;;;;10.07;1.75;;;;;;;;;;4960124;28;20433;-70
2022/02/22 11:21:53;;;;;;;6.63;1.90;;;;;;;;;;4971646;28;20050;-69
2022/02/22 11:24:21;;;;;;;6.65;2.00;;;;;;;;;;4969254;28;20054;-70
2022/02/22 11:26:57;;;;;;;10.57;2.47;;;;;;;;;;4969721;28;20101;-71
2022/02/22 11:29:28;;;;;;;11.98;2.03;;;;;;;;;;4971034;28;20074;-72
2022/02/22 11:32:06;;;;;;;8.25;2.65;;;;;;;;;;4970953;28;20050;-70
2022/02/22 11:34:36;;;;;;;9.27;2.10;;;;;;;;;;4971298;28;20133;-69
2022/02/22 11:37:06;;;;;;;11.18;2.47;;;;;;;;;;4973911;28;20058;-69
2022/02/22 11:39:52;;;;;;;8.77;1.92;;;;;;;;;;4970876;28;20081;-72
2022/02/22 11:42:58;;;;;;;10.30;2.10;;;;;;;;;;4968390;28;20074;-71
2022/02/22 11:45:29;;;;;;;12.23;3.28;;;;;;;;;;4971185;28;20055;-72
2022/02/22 11:48:14;;;;;;;9.27;3.33;;;;;;;;;;4971723;28;20046;-72
2022/02/22 11:50:42;;;;;;;7.70;1.90;;;;;;;;;;4970437;28;20051;-70
2022/02/22 11:53:19;;;;;;;10.85;2.70;;;;;;;;;;4971079;28;20047;-72
2022/02/22 11:55:49;;;;;;;10.13;2.72;;;;;;;;;;4954816;28;20053;-70
2022/02/22 11:58:22;;;;;;;9.20;2.92;;;;;;;;;;4971495;28;20076;-70
2022/02/22 12:00:50;;;;;;;;;;;;;;;;;;4969988;28;20051;-69
2022/02/22 12:03:19;;;;;;;13.75;3.13;;;;;;;;;;4964229;28;19930;-70
2022/02/22 12:06:00;;;;;;;11.25;3.22;;;;;;;;;;4971470;28;20055;-67
2022/02/22 12:08:33;;;;;;;12.32;3.65;;;;;;;;;;4972261;28;20062;-67
2022/02/22 12:11:02;;;;;;;9.43;2.45;;;;;;;;;;4970421;28;20051;-68
2022/02/22 12:13:44;;;;;;;12.55;2.78;;;;;;;;;;4971632;28;20051;-67
2022/02/22 12:16:17;;;;;;;5.65;2.42;;;;;;;;;;4970255;28;20043;-70
2022/02/22 12:18:49;;;;;;;9.77;2.60;;;;;;;;;;4969797;28;20054;-71
2022/02/22 12:21:26;;;;;;;11.63;2.58;;;;;;;;;;4971737;28;20054;-73
2022/02/22 12:23:53;;;;;;;7.97;2.63;;;;;;;;;;4970221;28;20051;-71
2022/02/22 12:26:23;;;;;;;10.27;2.75;;;;;;;;;;4970069;28;20457;-71
2022/02/22 12:28:58;;;;;;;10.57;2.60;;;;;;;;;;4971709;28;20050;-69
2022/02/22 12:31:34;;;;;;;12.40;3.35;;;;;;;;;;4966869;28;20085;-67
2022/02/22 12:34:04;;;;;;;6.95;2.35;;;;;;;;;;4965169;28;20138;-66
2022/02/22 12:36:31;;;;;;;11.88;2.63;;;;;;;;;;4971252;28;20073;-67
2022/02/22 12:39:09;;;;;;;8.85;2.78;;;;;;;;;;4971153;28;20390;-70
2022/02/22 12:41:38;;;;;;;10.32;2.33;;;;;;;;;;4971062;28;20082;-72
2022/02/22 12:44:13;;;;;;;8.85;2.30;;;;;;;;;;4971391;28;20055;-69
2022/02/22 12:46:41;;;;;;;5.80;2.05;;;;;;;;;;4971914;28;20174;-69
2022/02/22 12:49:12;;;;;;;8.35;2.78;;;;;;;;;;4975165;28;20047;-68
2022/02/22 12:51:41;;;;;;;8.55;2.38;;;;;;;;;;4973101;28;20469;-70
2022/02/22 12:54:18;;;;;;;6.65;2.55;;;;;;;;;;4973412;28;20054;-71
2022/02/22 12:56:52;;;;;;;9.38;2.35;;;;;;;;;;4974968;28;20109;-71
2022/02/22 12:59:21;;;;;;;11.63;2.47;;;;;;;;;;4975402;28;20055;-70
2022/02/22 13:01:47;;;;;;;13.90;3.50;;;;;;;;;;4968683;28;20055;-70
2022/02/22 13:04:17;;;;;;;10.63;2.03;;;;;;;;;;4971448;28;20117;-72
2022/02/22 13:06:46;;;;;;;10.77;2.47;;;;;;;;;;4973679;28;20047;-68
2022/02/22 13:09:12;;;;;;;7.47;2.40;;;;;;;;;;4957385;28;20106;-68
2022/02/22 13:11:40;;;;;;;7.45;1.75;;;;;;;;;;4973956;28;20537;-70
2022/02/22 13:14:09;;;;;;;8.00;1.80;;;;;;;;;;4972174;28;20105;-70
2022/02/22 13:16:48;;;;;;;8.98;2.50;;;;;;;;;;4974141;28;20047;-66
2022/02/22 13:19:15;;;;;;;5.07;1.50;;;;;;;;;;4973138;28;20097;-69
2022/02/22 13:21:42;;;;;;;8.00;1.60;;;;;;;;;;4974013;28;20055;-68
2022/02/22 13:24:11;;;;;;;5.85;1.58;;;;;;;;;;4973682;28;20038;-68
2022/02/22 13:26:39;;;;;;;7.05;1.80;;;;;;;;;;4974437;28;20054;-69
2022/02/22 13:29:26;;;;;;;11.75;2.40;;;;;;;;;;4973844;28;20466;-68
2022/02/22 13:32:06;;;;;;;10.38;2.03;;;;;;;;;;4974110;28;20051;-69
2022/02/22 13:34:47;;;;;;;10.80;2.22;;;;;;;;;;4972866;28;20097;-68
2022/02/22 13:37:35;;;;;;;8.68;2.00;;;;;;;;;;4974689;28;20043;-69
2022/02/22 13:40:09;;;;;;;12.65;2.13;;;;;;;;;;4972609;28;20059;-68
2022/02/22 13:42:37;;;;;;;7.22;1.90;;;;;;;;;;4972425;28;20054;-70
2022/02/22 13:45:06;;;;;;;8.85;1.88;;;;;;;;;;4973232;28;20093;-69
2022/02/22 13:47:34;;;;;;;14.32;2.08;;;;;;;;;;4973352;28;20054;-71
2022/02/22 13:50:16;;;;;;;9.80;2.15;;;;;;;;;;4969779;28;20050;-72
2022/02/22 13:52:52;;;;;;;9.93;2.38;;;;;;;;;;4973539;28;20963;-70
2022/02/22 13:55:18;;;;;;;11.23;2.33;;;;;;;;;;4963780;28;20055;-74
2022/02/22 13:57:47;;;;;;;9.43;2.40;;;;;;;;;;4973955;28;20043;-69
2022/02/22 14:00:14;;;;;;;13.70;2.75;;;;;;;;;;4973132;28;20047;-68
2022/02/22 14:02:42;;;;;;;12.73;2.40;;;;;;;;;;4973530;28;20102;-68
2022/02/22 14:05:11;;;;;;;13.07;2.53;;;;;;;;;;4973517;28;20099;-68
2022/02/22 14:07:40;;;;;;;10.75;2.03;;;;;;;;;;4973616;28;20075;-70
2022/02/22 14:10:08;;;;;;;11.07;2.15;;;;;;;;;;4973083;28;20046;-70
2022/02/22 14:12:34;;;;;;;11.55;1.88;;;;;;;;;;4973317;28;20105;-68
2022/02/22 14:15:01;;;;;;;13.95;2.38;;;;;;;;;;4973105;28;20786;-69
2022/02/22 14:17:31;;;;;;;11.23;2.20;;;;;;;;;;4969958;28;20097;-68
2022/02/22 14:19:58;;;;;;;10.45;1.90;;;;;;;;;;4972715;28;20050;-67
2022/02/22 14:22:27;;;;;;;11.43;2.30;;;;;;;;;;4973610;28;20078;-71
2022/02/22 14:24:54;;;;;;;10.85;2.38;;;;;;;;;;4973822;28;20042;-70
2022/02/22 14:27:21;;;;;;;11.40;2.53;;;;;;;;;;4973866;28;20189;-70
2022/02/22 14:29:48;;;;;;;6.80;1.92;;;;;;;;;;4973676;28;20117;-69
2022/02/22 14:32:15;;;;;;;12.65;1.98;;;;;;;;;;4972618;28;20054;-70
2022/02/22 14:34:42;;;;;;;16.25;2.83;;;;;;;;;;4974193;28;20055;-69
2022/02/22 14:37:09;;;;;;;12.75;2.15;;;;;;;;;;4971629;28;20057;-70
2022/02/22 14:39:35;;;;;;;9.10;1.83;;;;;;;;;;4972025;28;20556;-67
2022/02/22 14:42:04;;;;;;;9.23;2.13;;;;;;;;;;4970024;28;20086;-67
2022/02/22 14:44:35;;;;;;;9.98;1.65;;;;;;;;;;4969702;28;20055;-69
2022/02/22 14:47:03;;;;;;;11.20;2.83;;;;;;;;;;4972031;28;20050;-67
2022/02/22 14:49:29;;;;;;;15.68;3.05;;;;;;;;;;4972821;28;20050;-69
2022/02/22 14:51:56;;;;;;;10.32;1.65;;;;;;;;;;4970337;28;20042;-69
2022/02/22 14:54:23;;;;;;;11.02;1.95;;;;;;;;;;4972148;28;20050;-68
2022/02/22 14:56:49;;;;;;;10.50;2.03;;;;;;;;;;4972747;28;20101;-69
2022/02/22 14:59:18;;;;;;;8.75;1.60;;;;;;;;;;4972749;28;20194;-70
2022/02/22 15:01:44;;;;;;;13.23;1.85;;;;;;;;;;4972188;28;20102;-69
2022/02/22 15:04:11;;;;;;;11.02;2.30;;;;;;;;;;4972403;28;20058;-69
2022/02/22 15:06:38;;;;;;;9.50;2.67;;;;;;;;;;4972906;28;20051;-69
2022/02/22 15:09:04;;;;;;;12.13;2.50;;;;;;;;;;4971582;28;20078;-69
2022/02/22 15:11:31;;;;;;;9.88;2.33;;;;;;;;;;4972476;28;20510;-69
2022/02/22 15:14:03;;;;;;;9.18;2.05;;;;;;;;;;4971653;28;20125;-69
2022/02/22 15:16:30;;;;;;;10.48;2.30;;;;;;;;;;4972380;28;20047;-69
2022/02/22 15:18:56;;;;;;;9.75;2.08;;;;;;;;;;4971558;28;20101;-68
2022/02/22 15:21:23;;;;;;;9.95;1.90;;;;;;;;;;4971921;28;20133;-69
2022/02/22 15:24:10;;;;;;;8.30;1.90;;;;;;;;;;4972280;28;20046;-69
2022/02/22 15:26:38;;;;;;;10.55;2.35;;;;;;;;;;4971516;28;20494;-69
2022/02/22 15:29:04;;;;;;;12.20;2.67;;;;;;;;;;4972127;28;20502;-70
2022/02/22 15:31:37;;;;;;;11.00;2.72;;;;;;;;;;4971602;28;20097;-69
2022/02/22 15:34:04;;;;;;;12.68;2.53;;;;;;;;;;4955543;28;20105;-71
2022/02/22 15:36:31;;;;;;;13.43;2.60;;;;;;;;;;4970177;28;20055;-69
2022/02/22 15:38:58;;;;;;;9.68;2.47;;;;;;;;;;4971752;28;20051;-67
2022/02/22 15:41:26;;;;;;;8.80;2.30;;;;;;;;;;4971592;28;20050;-67
2022/02/22 15:43:53;;;;;;;9.60;2.10;;;;;;;;;;4971304;28;20062;-69
2022/02/22 15:46:19;;;;;;;11.45;2.53;;;;;;;;;;4971069;28;20089;-66
2022/02/22 15:48:46;;;;;;;9.10;2.30;;;;;;;;;;4972539;28;20055;-68
2022/02/22 15:51:13;;;;;;;10.85;2.63;;;;;;;;;;4972033;28;20042;-67
2022/02/22 15:53:39;;;;;;;11.50;2.33;;;;;;;;;;4972578;28;20047;-69
2022/02/22 15:56:06;;;;;;;6.85;1.80;;;;;;;;;;4968756;28;20076;-70
2022/02/22 15:58:34;;;;;;;8.27;2.53;;;;;;;;;;4972208;28;20062;-69
2022/02/22 16:01:00;;;;;;;15.95;3.30;;;;;;;;;;4971638;28;20113;-68
2022/02/22 16:03:27;;;;;;;11.10;2.72;;;;;;;;;;4968917;28;20061;-68
2022/02/22 16:05:54;;;;;;;9.93;3.20;;;;;;;;;;4971629;28;20054;-72
2022/02/22 16:08:21;;;;;;;15.02;2.95;;;;;;;;;;4967182;28;20098;-70
2022/02/22 16:10:52;;;;;;;13.75;2.65;;;;;;;;;;4976773;28;20061;-69
2022/02/22 16:13:19;;;;;;;13.23;3.00;;;;;;;;;;4985701;28;20046;-71
2022/02/22 16:15:46;;;;;;;8.25;2.63;;;;;;;;;;4969636;28;20050;-70
2022/02/22 16:18:12;;;;;;;11.40;2.63;;;;;;;;;;4965962;28;20046;-68
2022/02/22 16:20:39;;;;;;;11.82;2.17;;;;;;;;;;4972729;28;20422;-69